Time;durP1;ratioP1;P1;durP2;ratioP2;P2;SDS_P1;SDS_P2;PMS_P1;PMS_P2;Temp;Humidity;BMP_temperature;BMP_pressure;BME280_temperature;BME280_humidity;BME280_pressure;Samples;Min_cycle;Max_cycle;Signal;HPM_P1;HPM_P2
2021/12/18 00:01:54;;;;;;;;;;;;;;;21.91;22.90;97990.69;5098652;28;1465;-74
2021/12/18 00:04:20;;;;;;;;;;;;;;;21.96;22.76;97996.59;5099121;28;963;-74
2021/12/18 00:06:45;;;;;;;;;;;;;;;21.13;24.00;97997.13;5099016;28;984;-74
2021/12/18 00:09:11;;;;;;;;;;;;;;;21.90;23.12;97994.75;5099101;28;1056;-74
2021/12/18 00:11:36;;;;;;;;;;;;;;;21.53;23.56;97992.09;5098977;28;1980;-74
2021/12/18 00:14:02;;;;;;;;;;;;;;;22.19;22.74;97998.41;5096495;28;1040;-74
2021/12/18 00:16:30;;;;;;;;;;;;;;;21.83;22.96;98002.22;5096317;28;1391;-74
2021/12/18 00:18:57;;;;;;;;;;;;;;;22.00;22.95;97997.28;5096828;28;886;-74
2021/12/18 00:21:23;;;;;;;;;;;;;;;21.90;23.16;97992.72;5096237;28;1025;-74
2021/12/18 00:23:48;;;;;;;;;;;;;;;22.09;22.84;97993.81;5096562;28;940;-73
2021/12/18 00:26:14;;;;;;;;;;;;;;;22.15;22.58;97989.22;5096295;28;1005;-74
2021/12/18 00:28:41;;;;;;;;;;;;;;;22.18;22.58;97991.16;5096123;28;1116;-73
2021/12/18 00:31:07;;;;;;;;;;;;;;;21.87;23.15;97998.50;5096231;28;1977;-75
2021/12/18 00:33:32;;;;;;;;;;;;;;;21.51;23.51;98005.13;5095688;28;1624;-74
2021/12/18 00:35:58;;;;;;;;;;;;;;;22.04;22.67;97997.19;5096304;28;977;-74
2021/12/18 00:38:28;;;;;;;;;;;;;;;21.79;23.15;97997.91;5096025;28;1001;-73
2021/12/18 00:43:34;;;;;;;;;;;;;;;21.63;23.11;98000.75;5096160;28;1137;-73
2021/12/18 00:45:59;;;;;;;;;;;;;;;21.97;22.79;98009.53;5077396;28;1609;-75
2021/12/18 00:48:25;;;;;;;;;;;;;;;21.74;23.29;98002.06;5075719;28;1623;-74
2021/12/18 00:50:50;;;;;;;;;;;;;;;22.00;22.94;98016.34;5058541;28;1909;-74
2021/12/18 00:53:16;;;;;;;;;;;;;;;22.05;22.45;98005.25;5075764;28;948;-74
2021/12/18 00:55:42;;;;;;;;;;;;;;;22.17;22.70;98015.06;5075902;28;954;-74
2021/12/18 00:58:07;;;;;;;;;;;;;;;22.01;22.81;98009.41;5058134;28;958;-74
2021/12/18 01:00:32;;;;;;;;;;;;;;;21.93;23.00;98010.88;5072029;28;1409;-73
2021/12/18 01:03:00;;;;;;;;;;;;;;;21.70;23.03;98007.03;5055379;28;1027;-74
2021/12/18 01:05:26;;;;;;;;;;;;;;;21.92;22.96;98012.13;5055199;28;1146;-74
2021/12/18 01:07:54;;;;;;;;;;;;;;;21.94;22.66;98015.28;5075062;28;955;-74
2021/12/18 01:12:56;;;;;;;;;;;;;;;21.74;23.12;98006.94;5077568;28;955;-74
2021/12/18 01:15:43;;;;;;;;;;;;;;;21.72;22.99;98004.56;5068719;28;1551;-74
2021/12/18 01:23:36;;;;;;;;;;;;;;;22.07;22.38;98007.63;5097246;28;1414;-75
2021/12/18 01:26:03;;;;;;;;;;;;;;;21.93;22.97;98008.84;5097622;28;976;-75
2021/12/18 01:28:32;;;;;;;;;;;;;;;22.08;22.61;98001.53;5097239;28;1390;-74
2021/12/18 01:30:58;;;;;;;;;;;;;;;22.16;22.66;98016.31;5097411;28;1970;-73
2021/12/18 01:33:23;;;;;;;;;;;;;;;22.04;22.72;98008.53;5098005;28;855;-74
2021/12/18 01:35:49;;;;;;;;;;;;;;;22.06;22.89;98006.03;5097575;28;1036;-74
2021/12/18 01:38:15;;;;;;;;;;;;;;;22.08;22.94;98009.22;5097611;28;954;-74
2021/12/18 01:40:40;;;;;;;;;;;;;;;22.00;22.74;98016.34;5097569;28;997;-73
2021/12/18 01:53:40;;;;;;;;;;;;;;;21.72;22.97;98013.06;5014797;28;1053;-74
2021/12/18 01:56:06;;;;;;;;;;;;;;;21.66;23.30;98012.00;5015108;28;1418;-74
2021/12/18 01:58:31;;;;;;;;;;;;;;;21.93;23.10;98008.84;5034507;28;1627;-74
2021/12/18 02:00:58;;;;;;;;;;;;;;;21.94;23.18;98012.47;5014747;28;951;-74
2021/12/18 02:03:23;;;;;;;;;;;;;;;22.01;23.06;98015.09;4955878;29;1075;-74
2021/12/18 02:05:49;;;;;;;;;;;;;;;22.05;22.71;98015.78;4936976;29;987;-74
2021/12/18 02:08:17;;;;;;;;;;;;;;;22.35;22.58;98012.50;4936979;29;943;-74
2021/12/18 02:10:46;;;;;;;;;;;;;;;22.74;22.02;98010.53;4937257;29;1985;-74
2021/12/18 02:13:37;;;;;;;;;;;;;;;22.10;22.91;98018.06;4936573;29;1417;-74
2021/12/18 02:21:32;;;;;;;;;;;;;;;22.35;22.45;98015.34;4956132;29;1077;-74
2021/12/18 02:23:57;;;;;;;;;;;;;;;21.82;23.49;98011.97;4956228;29;1043;-74
2021/12/18 02:26:23;;;;;;;;;;;;;;;21.92;23.42;98017.78;4936226;29;1527;-73
2021/12/18 02:28:50;;;;;;;;;;;;;;;22.20;22.95;98017.00;4936406;29;1025;-74
2021/12/18 02:31:15;;;;;;;;;;;;;;;21.71;23.67;98014.31;4936657;29;1907;-74
2021/12/18 02:33:41;;;;;;;;;;;;;;;21.54;23.74;98009.88;4936766;29;1033;-75
2021/12/18 02:36:09;;;;;;;;;;;;;;;22.01;23.04;98009.41;4940681;29;965;-74
2021/12/18 02:41:38;;;;;;;;;;;;;;;22.06;23.12;98006.03;5040180;28;1588;-75
2021/12/18 02:44:07;;;;;;;;;;;;;;;22.00;23.33;98019.97;5053614;28;942;-75
2021/12/18 02:46:32;;;;;;;;;;;;;;;22.05;22.79;98010.91;5053759;28;980;-74
2021/12/18 02:49:05;;;;;;;;;;;;;;;22.18;22.72;98013.03;5053897;28;1039;-74
2021/12/18 02:51:30;;;;;;;;;;;;;;;22.27;22.74;98016.78;5053312;28;1964;-74
2021/12/18 02:53:55;;;;;;;;;;;;;;;22.02;23.12;98016.66;5053600;28;933;-74
2021/12/18 02:56:23;;;;;;;;;;;;;;;22.08;23.18;98020.56;5047524;28;1357;-75
2021/12/18 02:58:50;;;;;;;;;;;;;;;22.05;22.89;98016.59;5075825;28;904;-74
2021/12/18 03:01:17;;;;;;;;;;;;;;;21.92;23.42;98017.78;5076109;28;974;-75
2021/12/18 03:03:43;;;;;;;;;;;;;;;22.22;22.65;98019.38;5076082;28;1022;-74
2021/12/18 03:06:33;;;;;;;;;;;;;;;21.99;22.97;98017.59;5057087;28;930;-74
2021/12/18 03:25:07;;;;;;;;;;;;;;;22.16;22.78;98021.97;5099636;28;1331;-77
2021/12/18 03:27:33;;;;;;;;;;;;;;;22.27;22.72;98028.13;5100259;28;908;-77
2021/12/18 03:29:58;;;;;;;;;;;;;;;22.17;22.58;98020.72;5095239;28;1983;-77
2021/12/18 03:32:24;;;;;;;;;;;;;;;22.15;22.95;98031.72;5099858;28;1064;-77
2021/12/18 03:34:50;;;;;;;;;;;;;;;22.36;22.23;98022.59;5100095;28;928;-76
2021/12/18 03:37:15;;;;;;;;;;;;;;;22.41;22.24;98028.97;5099520;28;880;-77
2021/12/18 03:39:42;;;;;;;;;;;;;;;22.31;22.35;98023.16;5099592;28;1473;-76
2021/12/18 03:42:08;;;;;;;;;;;;;;;22.41;22.25;98020.47;5099869;28;974;-77
2021/12/18 03:44:33;;;;;;;;;;;;;;;22.26;22.67;98026.53;5099753;28;964;-76
2021/12/18 03:46:59;;;;;;;;;;;;;;;22.22;22.76;98019.38;5100116;28;851;-76
2021/12/18 03:49:24;;;;;;;;;;;;;;;22.14;22.51;98032.97;5099947;28;1010;-76
2021/12/18 03:51:50;;;;;;;;;;;;;;;22.24;22.57;98029.03;5099360;28;1967;-77
2021/12/18 03:54:15;;;;;;;;;;;;;;;22.02;22.76;98036.50;5099251;28;1275;-76
2021/12/18 03:56:41;;;;;;;;;;;;;;;21.95;22.92;98039.53;5099927;28;914;-77
2021/12/18 03:59:06;;;;;;;;;;;;;;;22.12;22.97;98046.78;5096930;28;1136;-76
2021/12/18 04:01:32;;;;;;;;;;;;;;;22.17;22.56;98040.56;5097455;28;1030;-77
2021/12/18 04:03:57;;;;;;;;;;;;;;;22.02;23.03;98039.34;5097104;28;961;-76
2021/12/18 04:06:23;;;;;;;;;;;;;;;22.19;22.94;98043.75;5096852;28;1017;-77
2021/12/18 04:08:48;;;;;;;;;;;;;;;21.78;23.24;98044.47;5096536;28;1449;-77
2021/12/18 04:11:14;;;;;;;;;;;;;;;22.08;22.84;98048.91;5097291;28;1972;-77
2021/12/18 04:13:45;;;;;;;;;;;;;;;21.84;23.20;98057.63;5096708;28;1049;-77
2021/12/18 04:16:10;;;;;;;;;;;;;;;22.08;22.94;98061.03;5080876;28;947;-77
2021/12/18 04:18:36;;;;;;;;;;;;;;;21.78;22.93;98062.25;5096449;28;978;-76
2021/12/18 04:21:01;;;;;;;;;;;;;;;22.15;22.63;98065.72;5096578;28;995;-77
2021/12/18 04:23:27;;;;;;;;;;;;;;;22.21;22.60;98057.47;5096496;28;1459;-77
2021/12/18 04:25:54;;;;;;;;;;;;;;;22.27;22.40;98062.13;5096389;28;1010;-76
2021/12/18 04:28:20;;;;;;;;;;;;;;;22.15;22.60;98065.72;5096952;28;981;-76
2021/12/18 04:30:45;;;;;;;;;;;;;;;22.05;22.55;98066.78;5080620;28;1898;-76
2021/12/18 04:33:10;;;;;;;;;;;;;;;21.95;22.78;98067.88;5074926;28;969;-76
2021/12/18 04:35:36;;;;;;;;;;;;;;;22.04;22.61;98073.69;5076057;28;957;-77
2021/12/18 04:38:01;;;;;;;;;;;;;;;22.14;22.67;98074.69;5093134;28;1568;-77
2021/12/18 04:40:27;;;;;;;;;;;;;;;21.99;22.87;98074.25;5098853;28;1013;-76
2021/12/18 04:42:53;;;;;;;;;;;;;;;21.95;22.95;98082.03;5098348;28;879;-76
2021/12/18 04:45:18;;;;;;;;;;;;;;;21.88;23.00;98090.75;5098350;28;1131;-76
2021/12/18 04:47:44;;;;;;;;;;;;;;;22.08;22.71;98088.56;5098634;28;917;-76
2021/12/18 04:50:10;;;;;;;;;;;;;;;22.26;22.48;98086.06;5098445;28;1875;-77
2021/12/18 04:52:35;;;;;;;;;;;;;;;22.11;22.68;98090.53;5098570;28;1603;-76
2021/12/18 04:55:01;;;;;;;;;;;;;;;22.20;22.70;98104.06;5098402;28;906;-76
2021/12/18 04:57:26;;;;;;;;;;;;;;;22.03;22.89;98091.94;5098325;28;967;-77
2021/12/18 04:59:52;;;;;;;;;;;;;;;21.95;22.97;98101.88;5098246;28;1853;-77
2021/12/18 05:02:21;;;;;;;;;;;;;;;22.12;22.80;98111.94;5098642;28;1450;-77
2021/12/18 05:04:46;;;;;;;;;;;;;;;22.30;22.55;98105.81;5098596;28;902;-77
2021/12/18 05:07:12;;;;;;;;;;;;;;;22.38;22.20;98112.06;5098250;28;905;-76
2021/12/18 05:09:38;;;;;;;;;;;;;;;22.02;22.57;98110.16;5098063;28;1897;-77
2021/12/18 05:12:03;;;;;;;;;;;;;;;22.13;22.59;98116.41;5098427;28;935;-76
2021/12/18 05:14:29;;;;;;;;;;;;;;;22.21;22.65;98114.94;5098255;28;905;-76
2021/12/18 05:16:54;;;;;;;;;;;;;;;21.78;22.88;98116.06;5095882;28;1093;-76
2021/12/18 05:19:20;;;;;;;;;;;;;;;22.32;22.32;98121.13;5098021;28;1015;-76
2021/12/18 05:21:46;;;;;;;;;;;;;;;22.16;22.47;98118.31;5098362;28;891;-76
2021/12/18 05:24:11;;;;;;;;;;;;;;;22.53;22.41;98113.25;5112682;28;1012;-77
2021/12/18 05:26:37;;;;;;;;;;;;;;;22.37;22.13;98111.28;5097664;28;1047;-77
2021/12/18 05:29:02;;;;;;;;;;;;;;;21.45;23.41;98103.13;5097533;28;950;-77
2021/12/18 05:31:28;;;;;;;;;;;;;;;21.84;22.98;98108.59;5098004;28;1917;-77
2021/12/18 05:33:58;;;;;;;;;;;;;;;22.24;22.49;98108.41;5097669;28;902;-77
2021/12/18 05:36:36;;;;;;;;;;;;;;;22.48;22.34;98105.31;5097548;28;932;-76
2021/12/18 05:39:05;;;;;;;;;;;;;;;21.94;22.92;98111.63;5097356;28;937;-76
2021/12/18 05:41:31;;;;;;;;;;;;;;;21.65;23.35;98117.19;5097544;28;905;-77
2021/12/18 05:43:56;;;;;;;;;;;;;;;21.65;23.39;98101.00;5096866;28;896;-76
2021/12/18 05:46:22;;;;;;;;;;;;;;;22.25;22.55;98109.97;5097759;28;911;-76
2021/12/18 05:48:47;;;;;;;;;;;;;;;22.06;22.73;98103.16;5095390;28;1028;-77
2021/12/18 05:51:13;;;;;;;;;;;;;;;22.20;22.35;98109.75;5097657;28;1918;-77
2021/12/18 05:53:38;;;;;;;;;;;;;;;22.03;22.39;98112.59;5097450;28;1367;-76
2021/12/18 05:56:04;;;;;;;;;;;;;;;22.22;22.71;98127.88;5097260;28;1070;-77
2021/12/18 05:58:29;;;;;;;;;;;;;;;22.11;22.75;98116.03;5097140;28;1002;-77
2021/12/18 06:00:55;;;;;;;;;;;;;;;21.77;23.01;98120.13;5097646;28;912;-77
2021/12/18 06:03:20;;;;;;;;;;;;;;;21.99;23.02;98119.56;5096708;28;961;-77
2021/12/18 06:05:46;;;;;;;;;;;;;;;21.97;22.95;98130.56;5097580;28;911;-77
2021/12/18 06:08:12;;;;;;;;;;;;;;;21.97;22.98;98130.56;5097140;28;871;-77
2021/12/18 06:10:38;;;;;;;;;;;;;;;21.73;23.32;98136.41;5096616;28;1901;-77
2021/12/18 06:13:03;;;;;;;;;;;;;;;21.94;22.90;98125.78;5096536;28;1041;-77
2021/12/18 06:15:29;;;;;;;;;;;;;;;21.96;23.03;98137.44;5096573;28;955;-76
2021/12/18 06:17:58;;;;;;;;;;;;;;;21.70;23.38;98131.63;5097108;28;933;-76
2021/12/18 06:20:24;;;;;;;;;;;;;;;21.46;23.47;98138.72;5094282;28;1035;-77
2021/12/18 06:22:49;;;;;;;;;;;;;;;21.43;23.30;98133.91;5088590;28;1270;-77
2021/12/18 06:25:14;;;;;;;;;;;;;;;21.28;23.38;98094.59;5074189;28;1055;-76
2021/12/18 06:27:40;;;;;;;;;;;;;;;21.96;22.91;98138.25;5074260;28;970;-77
2021/12/18 06:30:06;;;;;;;;;;;;;;;21.36;23.67;98134.91;5073751;28;1909;-77
2021/12/18 06:32:31;;;;;;;;;;;;;;;21.69;23.57;98141.38;5073944;28;1085;-77
2021/12/18 06:34:57;;;;;;;;;;;;;;;21.95;22.95;98147.19;5034003;28;927;-76
2021/12/18 06:37:22;;;;;;;;;;;;;;;21.82;22.93;98144.31;5033737;28;955;-75
2021/12/18 06:39:47;;;;;;;;;;;;;;;22.21;22.43;98142.50;5033764;28;969;-75
2021/12/18 06:42:13;;;;;;;;;;;;;;;21.88;22.57;98142.53;5033757;28;967;-75
2021/12/18 06:44:38;;;;;;;;;;;;;;;21.44;23.27;98146.84;5033717;28;949;-75
2021/12/18 06:47:04;;;;;;;;;;;;;;;21.67;23.30;98138.19;5033909;28;919;-75
2021/12/18 06:49:29;;;;;;;;;;;;;;;22.08;22.59;98143.22;5033973;28;997;-76
2021/12/18 06:51:55;;;;;;;;;;;;;;;22.22;22.54;98144.88;5062159;28;1902;-75
2021/12/18 06:54:20;;;;;;;;;;;;;;;21.78;22.93;98146.41;5012980;28;1023;-76
2021/12/18 06:56:46;;;;;;;;;;;;;;;21.71;23.16;98150.22;5014007;28;1111;-76
2021/12/18 06:59:11;;;;;;;;;;;;;;;21.89;22.94;98160.31;5013664;28;972;-75
2021/12/18 07:01:37;;;;;;;;;;;;;;;21.44;23.53;98158.16;4955278;29;920;-76
2021/12/18 07:04:02;;;;;;;;;;;;;;;21.45;23.78;98165.41;4955198;29;1953;-76
2021/12/18 07:06:28;;;;;;;;;;;;;;;22.06;22.58;98161.88;4955776;29;964;-76
2021/12/18 07:08:54;;;;;;;;;;;;;;;21.90;22.85;98167.56;4955440;29;920;-76
2021/12/18 07:11:19;;;;;;;;;;;;;;;21.92;23.09;98170.78;4955236;28;1914;-76
2021/12/18 07:13:45;;;;;;;;;;;;;;;22.02;22.81;98175.34;4955625;29;932;-75
2021/12/18 07:16:10;;;;;;;;;;;;;;;21.51;23.56;98172.16;4983653;28;982;-75
2021/12/18 07:18:36;;;;;;;;;;;;;;;21.13;24.04;98172.56;4994312;28;949;-76
2021/12/18 07:21:01;;;;;;;;;;;;;;;21.67;23.17;98183.50;4993772;28;1062;-75
2021/12/18 07:23:27;;;;;;;;;;;;;;;22.08;22.54;98182.09;4993887;28;993;-76
2021/12/18 07:25:52;;;;;;;;;;;;;;;21.91;22.81;98186.16;5037498;28;920;-75
2021/12/18 07:28:18;;;;;;;;;;;;;;;21.20;23.67;98188.59;5036329;28;980;-75
2021/12/18 07:30:43;;;;;;;;;;;;;;;21.55;23.22;98193.50;5053127;28;1981;-76
2021/12/18 07:33:11;;;;;;;;;;;;;;;21.92;22.77;98197.06;5066349;28;888;-76
2021/12/18 07:35:38;;;;;;;;;;;;;;;21.84;23.07;98198.47;5095968;28;869;-76
2021/12/18 07:38:03;;;;;;;;;;;;;;;21.64;23.44;98201.38;5095600;28;968;-76
2021/12/18 07:40:29;;;;;;;;;;;;;;;22.21;22.63;98208.47;5073381;28;978;-76
2021/12/18 07:42:54;;;;;;;;;;;;;;;21.83;23.14;98208.19;5072963;28;1006;-76
2021/12/18 07:45:20;;;;;;;;;;;;;;;21.70;22.97;98210.91;5073468;28;1013;-76
2021/12/18 07:47:45;;;;;;;;;;;;;;;21.47;23.64;98225.22;5073466;28;1012;-76
2021/12/18 07:50:18;;;;;;;;;;;;;;;21.88;22.84;98232.38;5073422;28;1984;-76
2021/12/18 07:52:43;;;;;;;;;;;;;;;22.15;22.49;98234.97;5073246;28;1242;-76
2021/12/18 07:55:11;;;;;;;;;;;;;;;21.65;23.04;98242.59;5072661;28;1144;-76
2021/12/18 07:57:37;;;;;;;;;;;;;;;21.73;23.18;98249.69;5073212;28;1007;-76
2021/12/18 08:00:06;;;;;;;;;;;;;;;22.09;22.55;98237.50;5073344;28;992;-76
2021/12/18 08:02:32;;;;;;;;;;;;;;;21.69;23.07;98260.31;5073040;28;1002;-76
2021/12/18 08:04:58;;;;;;;;;;;;;;;21.89;23.19;98265.13;5073152;28;1116;-76
2021/12/18 08:07:23;;;;;;;;;;;;;;;22.07;22.75;98273.97;5075932;28;950;-76
2021/12/18 08:09:49;;;;;;;;;;;;;;;21.32;23.81;98276.50;5026629;28;1981;-76
2021/12/18 08:12:14;;;;;;;;;;;;;;;21.61;22.98;98281.53;5059846;28;987;-76
2021/12/18 08:14:39;;;;;;;;;;;;;;;21.85;23.13;98279.38;5098965;28;933;-76
2021/12/18 08:17:07;;;;;;;;;;;;;;;21.97;22.92;98280.72;5099610;28;1221;-76
2021/12/18 08:19:33;;;;;;;;;;;;;;;21.74;23.10;98282.44;5099011;28;1015;-76
2021/12/18 08:21:58;;;;;;;;;;;;;;;21.35;23.82;98291.00;5098966;28;1162;-77
2021/12/18 08:24:24;;;;;;;;;;;;;;;21.45;23.41;98290.78;5098980;28;917;-77
2021/12/18 08:26:49;;;;;;;;;;;;;;;21.33;23.84;98294.25;5099097;28;953;-76
2021/12/18 08:29:15;;;;;;;;;;;;;;;22.21;22.67;98296.34;5099138;28;995;-76
2021/12/18 08:31:40;;;;;;;;;;;;;;;21.91;22.64;98299.47;5099026;28;1913;-76
2021/12/18 08:34:06;;;;;;;;;;;;;;;21.84;22.82;98295.56;5099067;28;965;-76
2021/12/18 08:36:31;;;;;;;;;;;;;;;21.67;23.25;98307.31;5098986;28;912;-76
2021/12/18 08:38:56;;;;;;;;;;;;;;;21.96;22.69;98307.44;5098392;28;1161;-76
2021/12/18 08:41:22;;;;;;;;;;;;;;;21.43;23.82;98315.88;5098661;28;960;-76
2021/12/18 08:43:49;;;;;;;;;;;;;;;21.64;23.17;98303.31;5098606;28;1130;-76
2021/12/18 08:46:14;;;;;;;;;;;;;;;22.03;22.71;98307.28;5099090;28;989;-76
2021/12/18 08:48:40;;;;;;;;;;;;;;;21.56;23.30;98307.53;5098549;28;934;-76
2021/12/18 08:51:05;;;;;;;;;;;;;;;21.26;23.82;98312.16;5098253;28;1975;-76
2021/12/18 08:53:31;;;;;;;;;;;;;;;21.92;23.05;98301.09;5098664;28;861;-76
2021/12/18 08:55:56;;;;;;;;;;;;;;;21.60;23.35;98299.75;5098562;28;984;-76
2021/12/18 08:58:22;;;;;;;;;;;;;;;21.44;23.47;98299.69;5098418;28;915;-76
2021/12/18 09:00:47;;;;;;;;;;;;;;;21.99;22.63;98298.88;5098408;28;978;-76
2021/12/18 09:03:12;;;;;;;;;;;;;;;21.37;22.96;98243.25;5098138;28;876;-76
2021/12/18 09:05:38;;;;;;;;;;;;;;;21.39;23.83;98297.38;5098147;28;951;-76
2021/12/18 09:08:04;;;;;;;;;;;;;;;21.99;22.94;98295.25;5098489;28;913;-76
2021/12/18 09:10:29;;;;;;;;;;;;;;;21.82;22.96;98291.59;5098652;28;1968;-76
2021/12/18 09:12:55;;;;;;;;;;;;;;;21.69;23.33;98282.97;5098081;28;908;-77
2021/12/18 09:15:20;;;;;;;;;;;;;;;21.42;23.71;98280.31;5098249;28;910;-77
2021/12/18 09:17:46;;;;;;;;;;;;;;;21.74;23.12;98290.94;5097672;28;1003;-76
2021/12/18 09:20:12;;;;;;;;;;;;;;;22.03;22.75;98284.63;5097614;28;969;-76
2021/12/18 09:22:39;;;;;;;;;;;;;;;21.71;23.10;98271.19;5097749;28;988;-76
2021/12/18 09:25:05;;;;;;;;;;;;;;;22.01;22.95;98264.41;5098020;28;918;-76
2021/12/18 09:27:34;;;;;;;;;;;;;;;21.67;23.14;98268.47;5078706;28;1027;-76
2021/12/18 09:30:00;;;;;;;;;;;;;;;22.08;22.87;98281.28;5078420;28;1981;-76
2021/12/18 09:32:25;;;;;;;;;;;;;;;21.81;23.01;98272.97;5097459;28;972;-75
2021/12/18 09:34:51;;;;;;;;;;;;;;;22.07;22.63;98279.66;5074937;28;1003;-76
2021/12/18 09:37:16;;;;;;;;;;;;;;;21.47;23.15;98273.34;5075045;28;835;-75
2021/12/18 09:39:42;;;;;;;;;;;;;;;21.24;23.97;98279.84;5057880;28;982;-75
2021/12/18 09:42:07;;;;;;;;;;;;;;;21.77;23.15;98284.41;5075176;28;902;-76
2021/12/18 09:44:33;;;;;;;;;;;;;;;21.21;24.00;98287.22;5057792;28;994;-75
2021/12/18 09:46:59;;;;;;;;;;;;;;;22.02;22.60;98288.69;5075364;28;943;-76
2021/12/18 09:49:24;;;;;;;;;;;;;;;21.37;23.56;98305.53;5074463;28;947;-75
2021/12/18 09:51:50;;;;;;;;;;;;;;;21.30;23.41;98310.09;5057914;28;1910;-76
2021/12/18 09:54:15;;;;;;;;;;;;;;;21.92;22.76;98301.09;5074425;28;963;-76
2021/12/18 09:56:41;;;;;;;;;;;;;;;21.68;23.29;98301.19;5074822;28;964;-75
2021/12/18 09:59:06;;;;;;;;;;;;;;;21.32;23.70;98307.63;5074460;28;1084;-75
2021/12/18 10:01:32;;;;;;;;;;;;;;;21.43;23.64;98309.44;5074672;28;1031;-75
2021/12/18 10:03:58;;;;;;;;;;;;;;;21.83;23.05;98313.00;5074320;28;948;-75
2021/12/18 10:06:33;;;;;;;;;;;;;;;21.82;23.05;98315.06;5091293;28;985;-76
2021/12/18 10:08:59;;;;;;;;;;;;;;;22.08;22.62;98309.59;5096599;28;973;-76
2021/12/18 10:11:24;;;;;;;;;;;;;;;22.03;22.92;98318.63;5096848;28;1915;-75
2021/12/18 10:13:53;;;;;;;;;;;;;;;21.45;23.65;98312.63;5096053;28;1980;-75
2021/12/18 10:16:19;;;;;;;;;;;;;;;21.43;23.45;98317.91;5074058;28;989;-75
2021/12/18 10:18:44;;;;;;;;;;;;;;;21.59;23.21;98317.97;5074008;28;940;-75
2021/12/18 10:21:10;;;;;;;;;;;;;;;22.03;22.89;98313.75;5074024;28;1121;-76
2021/12/18 10:23:36;;;;;;;;;;;;;;;21.50;23.49;98323.44;5074248;28;972;-75
2021/12/18 10:26:01;;;;;;;;;;;;;;;21.59;23.02;98318.78;5040504;28;981;-76
2021/12/18 10:28:29;;;;;;;;;;;;;;;22.03;22.75;98324.28;5057545;28;974;-75
2021/12/18 10:30:56;;;;;;;;;;;;;;;21.51;23.61;98316.56;5071388;28;1981;-75
2021/12/18 10:33:29;;;;;;;;;;;;;;;21.44;23.53;98323.13;5073737;28;952;-76
2021/12/18 10:35:55;;;;;;;;;;;;;;;21.96;22.98;98324.44;5074191;28;1031;-75
2021/12/18 10:38:37;;;;;;;;;;;;;;;21.89;22.91;98310.44;5073649;28;1125;-75
2021/12/18 10:41:02;;;;;;;;;;;;;;;21.46;23.45;98309.38;5073848;28;1173;-75
2021/12/18 10:43:32;;;;;;;;;;;;;;;21.37;23.75;98305.53;5056959;28;1035;-75
2021/12/18 10:45:57;;;;;;;;;;;;;;;21.57;23.53;98300.63;5057106;28;1053;-75
2021/12/18 10:48:22;;;;;;;;;;;;;;;22.00;22.93;98296.84;5095127;28;896;-75
2021/12/18 10:50:49;;;;;;;;;;;;;;;21.45;23.17;98295.63;5096454;28;1906;-75
2021/12/18 10:53:15;;;;;;;;;;;;;;;21.27;23.82;98302.44;5073214;28;972;-76
2021/12/18 10:55:51;;;;;;;;;;;;;;;21.72;23.28;98290.59;5073933;28;996;-76
2021/12/18 10:58:25;;;;;;;;;;;;;;;21.27;23.82;98291.13;5073326;28;1234;-75
2021/12/18 11:00:53;;;;;;;;;;;;;;;21.29;23.65;98294.28;5073703;28;1171;-76
2021/12/18 11:03:21;;;;;;;;;;;;;;;21.74;23.22;98296.59;5073309;28;897;-76
2021/12/18 11:06:10;;;;;;;;;;;;;;;21.67;23.23;98291.13;5073646;28;919;-76
2021/12/18 11:08:57;;;;;;;;;;;;;;;21.56;23.56;98296.22;5013392;28;947;-76
2021/12/18 11:14:01;;;;;;;;;;;;;;;21.59;23.16;98296.13;5013516;28;1023;-75
2021/12/18 11:16:28;;;;;;;;;;;;;;;21.44;23.25;98292.00;5013663;28;952;-76
2021/12/18 11:18:56;;;;;;;;;;;;;;;21.69;23.32;98299.16;5013689;28;987;-75
2021/12/18 11:21:25;;;;;;;;;;;;;;;21.67;23.24;98302.44;5013421;28;1044;-76
2021/12/18 11:23:51;;;;;;;;;;;;;;;22.18;22.57;98304.97;5020377;28;1008;-75
2021/12/18 11:26:16;;;;;;;;;;;;;;;21.67;23.34;98290.31;4997239;28;1151;-75
2021/12/18 11:28:43;;;;;;;;;;;;;;;21.40;23.55;98298.97;5013487;28;940;-75
2021/12/18 11:31:08;;;;;;;;;;;;;;;21.64;23.44;98303.31;5013711;28;1992;-76
2021/12/18 11:33:34;;;;;;;;;;;;;;;21.88;23.13;98300.38;5013679;28;1037;-75
2021/12/18 11:36:03;;;;;;;;;;;;;;;21.11;24.16;98299.53;4993763;28;1060;-75
2021/12/18 11:38:34;;;;;;;;;;;;;;;22.07;22.78;98302.31;4974149;28;1032;-75
2021/12/18 11:41:04;;;;;;;;;;;;;;;21.87;22.64;98301.59;4975137;28;1028;-75
2021/12/18 11:43:36;;;;;;;;;;;;;;;21.96;22.64;98301.78;4978282;28;1027;-76
2021/12/18 11:46:02;;;;;;;;;;;;;;;21.42;23.78;98307.84;5004866;28;998;-75
2021/12/18 11:48:39;;;;;;;;;;;;;;;21.84;22.79;98306.91;5017428;28;955;-75
2021/12/18 11:51:11;;;;;;;;;;;;;;;21.68;23.38;98308.91;4994437;28;1910;-76
2021/12/18 11:53:39;;;;;;;;;;;;;;;21.75;22.85;98309.53;4997278;28;985;-76
2021/12/18 11:56:05;;;;;;;;;;;;;;;21.94;22.71;98310.72;4997961;28;1056;-75
2021/12/18 11:58:34;;;;;;;;;;;;;;;21.57;23.46;98309.13;5017272;28;1075;-75
2021/12/18 12:01:05;;;;;;;;;;;;;;;21.60;23.61;98319.56;4980822;28;986;-75
2021/12/18 12:03:40;;;;;;;;;;;;;;;21.74;23.26;98307.13;4996860;28;1165;-76
2021/12/18 12:06:24;;;;;;;;;;;;;;;21.87;22.88;98315.78;4995092;28;979;-76
2021/12/18 12:08:52;;;;;;;;;;;;;;;21.45;23.48;98312.63;4977907;28;1010;-75
2021/12/18 12:11:18;;;;;;;;;;;;;;;20.72;24.63;98320.88;4994034;28;1922;-75
2021/12/18 12:14:11;;;;;;;;;;;;;;;21.75;23.36;98315.19;4977843;28;1100;-76
2021/12/18 12:16:42;;;;;;;;;;;;;;;21.67;23.34;98316.59;5025177;28;1076;-75
2021/12/18 12:19:08;;;;;;;;;;;;;;;21.59;23.25;98324.44;5036389;28;998;-75
2021/12/18 12:21:40;;;;;;;;;;;;;;;22.01;22.60;98323.91;5036584;28;983;-75
2021/12/18 12:24:06;;;;;;;;;;;;;;;21.45;23.43;98324.75;5036305;28;975;-76
2021/12/18 12:26:31;;;;;;;;;;;;;;;21.83;22.82;98321.50;5036309;28;996;-76
2021/12/18 12:28:56;;;;;;;;;;;;;;;21.62;23.13;98317.13;5049703;28;995;-76
2021/12/18 12:31:22;;;;;;;;;;;;;;;21.37;23.57;98316.84;5066697;28;1986;-76
2021/12/18 12:33:49;;;;;;;;;;;;;;;21.71;23.22;98331.50;5081002;28;1384;-75
2021/12/18 12:36:25;;;;;;;;;;;;;;;21.88;22.73;98323.03;5099130;28;1000;-75
2021/12/18 12:39:03;;;;;;;;;;;;;;;21.57;23.26;98331.78;5098850;28;1122;-76
2021/12/18 12:41:33;;;;;;;;;;;;;;;21.73;22.83;98317.66;5079998;28;1432;-75
2021/12/18 12:44:04;;;;;;;;;;;;;;;21.63;23.41;98324.38;5098573;28;1121;-75
2021/12/18 12:46:30;;;;;;;;;;;;;;;21.98;22.62;98319.16;5099000;28;877;-76
2021/12/18 12:49:04;;;;;;;;;;;;;;;21.47;23.60;98318.66;5098496;28;928;-76
2021/12/18 12:51:48;;;;;;;;;;;;;;;21.37;23.70;98325.34;5098402;28;1913;-76
2021/12/18 12:54:33;;;;;;;;;;;;;;;21.87;22.71;98321.44;5097474;28;926;-75
2021/12/18 12:57:17;;;;;;;;;;;;;;;21.80;22.87;98317.50;5098644;28;925;-75
2021/12/18 12:59:42;;;;;;;;;;;;;;;21.58;23.14;98333.38;5098173;28;967;-76
2021/12/18 13:02:08;;;;;;;;;;;;;;;21.61;23.11;98328.88;5075541;28;1253;-76
2021/12/18 13:04:33;;;;;;;;;;;;;;;22.01;22.46;98321.09;5075872;28;964;-75
2021/12/18 13:07:06;;;;;;;;;;;;;;;21.64;23.10;98323.13;5075584;28;884;-75
2021/12/18 13:09:32;;;;;;;;;;;;;;;21.69;23.12;98322.63;5075548;28;1006;-75
2021/12/18 13:12:01;;;;;;;;;;;;;;;21.57;23.04;98320.47;5075255;28;1980;-75
2021/12/18 13:14:34;;;;;;;;;;;;;;;22.18;22.45;98319.91;5058959;28;913;-75
2021/12/18 13:17:00;;;;;;;;;;;;;;;21.68;22.80;98326.69;5075692;28;997;-75
2021/12/18 13:19:25;;;;;;;;;;;;;;;22.10;22.25;98324.13;5075475;28;946;-76
2021/12/18 13:21:50;;;;;;;;;;;;;;;21.53;22.95;98326.19;5075556;28;949;-76
2021/12/18 13:24:16;;;;;;;;;;;;;;;22.01;22.30;98318.25;5075326;28;1074;-76
2021/12/18 13:26:43;;;;;;;;;;;;;;;22.05;22.22;98327.47;5075280;28;1062;-76
2021/12/18 13:29:09;;;;;;;;;;;;;;;21.59;22.95;98323.63;5075386;28;952;-76
2021/12/18 13:31:46;;;;;;;;;;;;;;;21.92;22.47;98324.53;5075191;28;1902;-76
2021/12/18 13:34:15;;;;;;;;;;;;;;;21.67;22.86;98341.28;5072675;28;1024;-75
2021/12/18 13:36:44;;;;;;;;;;;;;;;22.06;22.27;98334.72;5075277;28;914;-76
2021/12/18 13:39:11;;;;;;;;;;;;;;;21.45;23.05;98335.25;5074805;28;1036;-75
2021/12/18 13:41:37;;;;;;;;;;;;;;;21.92;22.40;98335.88;5075094;28;999;-75
2021/12/18 13:44:04;;;;;;;;;;;;;;;21.60;22.91;98342.22;5074838;28;1033;-75
2021/12/18 13:46:30;;;;;;;;;;;;;;;21.56;22.94;98341.53;5074952;28;1010;-76
2021/12/18 13:48:56;;;;;;;;;;;;;;;21.45;22.96;98340.91;5074613;28;1212;-76
2021/12/18 13:51:22;;;;;;;;;;;;;;;21.64;22.58;98342.94;5074570;28;1910;-75